Time;durP1;ratioP1;P1;durP2;ratioP2;P2;SDS_P1;SDS_P2;PMS_P1;PMS_P2;Temp;Humidity;BMP_temperature;BMP_pressure;BME280_temperature;BME280_humidity;BME280_pressure;Samples;Min_cycle;Max_cycle;Signal;HPM_P1;HPM_P2
2022/05/16 00:00:39;;;;;;;4.20;2.70;;;;;;;23.32;41.85;99117.31;4157768;28;20220;-69
2022/05/16 00:02:41;;;;;;;9.48;3.25;;;;;;;23.22;41.69;99118.03;4156547;28;20255;-69
2022/05/16 00:04:45;;;;;;;3.77;2.70;;;;;;;23.54;41.36;99117.22;4157070;28;20248;-69
2022/05/16 00:06:47;;;;;;;3.83;2.70;;;;;;;23.72;41.09;99121.41;4159361;28;20265;-69
2022/05/16 00:08:49;;;;;;;5.33;2.50;;;;;;;23.82;40.69;99126.91;4155533;28;20277;-69
2022/05/16 00:10:51;;;;;;;6.30;3.00;;;;;;;23.58;41.10;99124.59;4153482;28;20237;-69
2022/05/16 00:12:53;;;;;;;3.77;2.97;;;;;;;23.37;41.24;99133.63;4158519;28;20220;-70
2022/05/16 00:14:54;;;;;;;3.63;2.83;;;;;;;23.83;40.84;99131.25;4163791;28;20259;-69
2022/05/16 00:16:56;;;;;;;6.30;2.60;;;;;;;23.67;41.23;99140.38;4179362;28;20232;-69
2022/05/16 00:18:58;;;;;;;8.07;2.80;;;;;;;23.98;41.15;99132.44;4158466;28;20229;-69
2022/05/16 00:21:03;;;;;;;3.23;2.80;;;;;;;23.30;41.69;99144.69;4167405;28;20282;-70
2022/05/16 00:23:05;;;;;;;5.27;2.57;;;;;;;23.45;42.56;99132.31;4179472;28;20285;-70
2022/05/16 00:25:09;;;;;;;4.60;2.77;;;;;;;23.79;41.53;99121.19;4170412;28;20895;-70
2022/05/16 00:27:12;;;;;;;6.57;2.80;;;;;;;22.71;42.50;99133.78;4173746;28;20233;-69
2022/05/16 00:29:13;;;;;;;4.17;2.70;;;;;;;23.17;41.65;99118.81;4180348;28;20855;-69
2022/05/16 00:31:15;;;;;;;5.23;2.60;;;;;;;23.46;41.40;99113.06;4176937;28;20804;-69
2022/05/16 00:33:17;;;;;;;5.83;3.00;;;;;;;23.96;40.30;99127.28;4179879;28;20235;-70
2022/05/16 00:35:21;;;;;;;5.47;2.50;;;;;;;24.08;40.03;99129.78;4177674;28;20802;-69
2022/05/16 00:37:23;;;;;;;3.70;2.60;;;;;;;24.40;39.50;99137.03;4178933;28;20267;-70
2022/05/16 00:39:24;;;;;;;5.37;2.67;;;;;;;24.31;39.70;99139.41;4178280;28;20236;-70
2022/05/16 00:41:26;;;;;;;5.80;3.20;;;;;;;24.39;39.73;99138.09;4161407;28;20240;-70
2022/05/16 00:44:00;;;;;;;9.38;2.80;;;;;;;24.12;40.36;99153.41;4159647;28;20290;-69
2022/05/16 00:46:02;;;;;;;7.07;2.80;;;;;;;24.21;40.62;99159.22;4153961;28;20228;-69
2022/05/16 00:48:05;;;;;;;6.55;2.95;;;;;;;23.30;41.54;99155.53;4163727;28;20236;-70
2022/05/16 00:50:09;;;;;;;5.22;2.80;;;;;;;23.68;41.11;99136.59;4163190;28;20233;-69
2022/05/16 00:52:50;;;;;;;4.60;2.83;;;;;;;24.01;40.80;99157.19;4167403;28;20277;-69
2022/05/16 00:54:59;;;;;;;5.60;2.83;;;;;;;23.07;43.16;99153.97;4144815;28;20229;-70
2022/05/16 00:57:05;;;;;;;4.60;2.58;;;;;;;23.72;41.75;99149.41;4151832;28;20232;-69
2022/05/16 00:59:07;;;;;;;5.05;2.90;;;;;;;23.40;42.35;99149.41;4141916;28;20918;-70
2022/05/16 01:05:52;;;;;;;3.55;3.08;;;;;;;22.26;45.35;99133.78;4176178;28;20244;-69
2022/05/16 01:07:58;;;;;;;4.10;2.75;;;;;;;22.57;44.29;99122.50;4178191;28;20671;-69
2022/05/16 01:09:59;;;;;;;5.87;2.63;;;;;;;21.61;45.68;99120.91;4179096;28;20273;-69
2022/05/16 01:12:02;;;;;;;5.57;2.65;;;;;;;22.74;44.52;99109.72;4179638;28;20236;-69
2022/05/16 01:14:05;;;;;;;3.60;2.60;;;;;;;23.00;43.79;99113.50;4178531;28;20642;-70
2022/05/16 01:16:06;;;;;;;6.72;3.15;;;;;;;23.46;43.20;99113.06;4163989;28;20912;-69
2022/05/16 01:18:12;;;;;;;5.90;2.90;;;;;;;23.48;43.12;99119.06;4164182;28;20233;-70
2022/05/16 01:20:13;;;;;;;3.90;2.92;;;;;;;23.86;42.16;99119.09;4155163;28;20749;-69
2022/05/16 01:22:15;;;;;;;5.88;2.90;;;;;;;23.72;42.43;99124.13;4160009;28;20306;-69
2022/05/16 01:24:18;;;;;;;4.80;2.80;;;;;;;23.51;42.58;99118.53;4166741;28;20225;-70
2022/05/16 01:26:24;;;;;;;5.40;3.20;;;;;;;23.78;42.13;99125.00;4151932;28;20496;-70
2022/05/16 01:28:27;;;;;;;4.75;3.08;;;;;;;23.27;42.78;99128.13;4152173;28;20229;-69
2022/05/16 01:30:41;;;;;;;4.20;3.20;;;;;;;24.16;41.32;99121.13;4153559;28;20236;-70
2022/05/16 01:32:43;;;;;;;5.35;2.63;;;;;;;23.51;42.33;99126.69;4156918;28;20240;-69
2022/05/16 01:34:44;;;;;;;5.18;2.92;;;;;;;23.46;42.82;99126.63;4152998;28;20711;-70
2022/05/16 01:36:46;;;;;;;3.85;2.65;;;;;;;23.84;41.97;99126.66;4148897;28;20541;-69
2022/05/16 01:38:48;;;;;;;3.08;2.78;;;;;;;22.27;44.67;99116.47;4156273;28;20271;-68
2022/05/16 01:40:56;;;;;;;5.63;2.63;;;;;;;21.58;46.04;99108.72;4176321;28;20320;-69
2022/05/16 01:42:58;;;;;;;5.28;2.78;;;;;;;21.73;45.40;99095.44;4168030;28;20219;-69
2022/05/16 01:45:00;;;;;;;8.10;2.80;;;;;;;21.55;46.51;99082.16;4171449;28;20286;-69
2022/05/16 01:47:02;;;;;;;5.75;3.17;;;;;;;22.28;44.92;99099.16;4169977;28;20232;-69
2022/05/16 01:49:05;;;;;;;5.72;2.80;;;;;;;22.91;43.89;99096.06;4158766;28;20306;-70
2022/05/16 01:51:09;;;;;;;6.20;3.05;;;;;;;23.38;43.19;99116.25;4163091;28;20283;-69
2022/05/16 01:53:11;;;;;;;6.10;2.95;;;;;;;23.17;43.78;99121.53;4178650;28;20235;-69
2022/05/16 01:55:13;;;;;;;6.10;3.17;;;;;;;23.08;43.82;99120.38;4176084;28;20234;-69
2022/05/16 01:57:15;;;;;;;5.10;2.80;;;;;;;22.44;45.07;99118.31;4177144;28;20594;-69
2022/05/16 01:59:17;;;;;;;5.25;3.10;;;;;;;22.89;43.79;99106.31;4164865;28;20232;-70
2022/05/16 02:01:20;;;;;;;4.70;3.10;;;;;;;23.64;42.65;99136.31;4159472;28;20780;-70
2022/05/16 02:03:23;;;;;;;4.32;2.88;;;;;;;23.37;43.39;99142.59;4159849;28;20286;-70
2022/05/16 02:05:25;;;;;;;7.03;3.17;;;;;;;23.06;43.82;99146.91;4170681;28;20239;-71
2022/05/16 02:07:27;;;;;;;6.03;2.60;;;;;;;22.34;45.17;99132.56;4156035;28;20248;-69
2022/05/16 02:09:29;;;;;;;4.50;2.97;;;;;;;22.33;45.02;99140.94;4152399;28;20232;-69
2022/05/16 02:11:30;;;;;;;5.35;3.25;;;;;;;23.02;43.93;99146.59;4154893;28;20729;-69
2022/05/16 02:13:35;;;;;;;4.80;3.03;;;;;;;23.02;43.96;99146.59;4147199;28;20275;-69
2022/05/16 02:15:39;;;;;;;4.43;3.22;;;;;;;22.85;44.13;99143.16;4159680;28;20301;-69
2022/05/16 02:17:41;;;;;;;5.95;3.50;;;;;;;23.07;44.09;99136.91;4157563;28;20236;-69
2022/05/16 02:19:42;;;;;;;5.60;3.28;;;;;;;22.63;44.53;99137.78;4157917;28;20270;-69
2022/05/16 02:26:25;;;;;;;4.78;3.08;;;;;;;23.09;44.14;99126.59;4166647;28;20286;-70
2022/05/16 02:28:27;;;;;;;6.50;2.70;;;;;;;23.66;42.97;99133.34;4162317;28;20283;-69
2022/05/16 02:30:29;;;;;;;5.00;3.20;;;;;;;23.49;43.45;99130.75;4160613;28;20252;-69
2022/05/16 02:32:31;;;;;;;5.78;3.42;;;;;;;22.95;44.36;99135.16;4166834;28;20285;-69
2022/05/16 02:34:33;;;;;;;7.10;3.25;;;;;;;23.32;43.81;99139.03;4178722;28;20220;-70
2022/05/16 02:36:34;;;;;;;5.18;3.50;;;;;;;23.14;44.24;99137.50;4178669;28;20652;-69
2022/05/16 02:38:36;;;;;;;5.88;3.60;;;;;;;22.98;44.29;99152.81;4158799;28;20235;-69
2022/05/16 02:40:38;;;;;;;4.65;3.50;;;;;;;23.72;43.07;99149.41;4172788;28;20235;-70
2022/05/16 02:42:40;;;;;;;5.20;3.58;;;;;;;23.71;42.86;99160.50;4166688;28;20278;-70
2022/05/16 02:44:43;;;;;;;4.68;3.10;;;;;;;23.41;43.58;99172.72;4179009;28;20283;-69
2022/05/16 02:46:44;;;;;;;5.82;3.63;;;;;;;23.16;44.21;99149.72;4179034;28;20239;-69
2022/05/16 02:48:51;;;;;;;6.05;3.80;;;;;;;23.73;43.13;99167.28;4174919;28;20720;-69
2022/05/16 02:50:53;;;;;;;5.05;3.40;;;;;;;23.01;44.12;99165.84;4160095;28;20251;-70
2022/05/16 02:52:55;;;;;;;6.45;3.65;;;;;;;23.40;43.89;99154.81;4158755;28;20692;-69
2022/05/16 02:55:00;;;;;;;9.27;3.50;;;;;;;23.76;43.13;99168.69;4160580;28;20282;-70
2022/05/16 02:57:03;;;;;;;7.15;3.50;;;;;;;23.39;43.58;99167.56;4161318;28;20265;-69
2022/05/16 02:59:05;;;;;;;6.40;4.23;;;;;;;23.93;42.82;99163.09;4155605;28;20290;-68
2022/05/16 03:01:07;;;;;;;4.22;3.30;;;;;;;22.53;45.28;99164.75;4156463;28;20290;-69
2022/05/16 03:03:08;;;;;;;5.32;3.63;;;;;;;22.91;44.71;99157.56;4151804;28;20229;-69
2022/05/16 03:05:11;;;;;;;4.60;3.90;;;;;;;22.49;45.24;99159.03;4152225;28;20229;-70
2022/05/16 03:07:12;;;;;;;7.03;3.70;;;;;;;22.63;44.98;99154.84;4166736;28;20251;-69
2022/05/16 03:09:14;;;;;;;4.97;3.80;;;;;;;22.62;45.32;99152.38;4149546;28;20241;-70
2022/05/16 03:11:16;;;;;;;5.17;3.60;;;;;;;22.14;45.94;99140.41;4158285;28;20236;-69
2022/05/16 03:13:17;;;;;;;4.40;3.60;;;;;;;22.36;45.76;99145.84;4176957;28;20374;-69
2022/05/16 03:15:19;;;;;;;5.70;3.83;;;;;;;22.87;44.94;99145.59;4179685;28;20304;-69
2022/05/16 03:17:23;;;;;;;6.55;3.80;;;;;;;22.30;46.17;99149.56;4189603;28;20608;-69
2022/05/16 03:19:24;;;;;;;7.93;3.70;;;;;;;21.43;47.87;99141.75;4179428;28;20261;-69
2022/05/16 03:21:26;;;;;;;6.37;3.80;;;;;;;21.87;47.47;99128.38;4173127;28;20240;-70
2022/05/16 03:23:28;;;;;;;7.75;3.80;;;;;;;22.54;46.48;99136.56;4157379;28;20236;-69
2022/05/16 03:25:30;;;;;;;4.70;3.58;;;;;;;22.70;45.49;99141.09;4175684;28;20239;-69
2022/05/16 03:27:32;;;;;;;5.28;4.13;;;;;;;22.65;45.70;99144.56;4168554;28;20363;-69
2022/05/16 03:29:33;;;;;;;5.97;4.10;;;;;;;22.55;46.15;99158.00;4157243;28;20886;-70
2022/05/16 03:31:35;;;;;;;6.20;4.00;;;;;;;21.19;48.87;99157.28;4162757;28;20244;-70
2022/05/16 03:33:37;;;;;;;4.95;3.97;;;;;;;22.67;45.87;99149.72;4158507;28;20324;-72
2022/05/16 03:35:39;;;;;;;5.20;4.07;;;;;;;22.95;45.91;99161.44;4160134;28;20255;-76
2022/05/16 03:37:41;;;;;;;4.18;3.75;;;;;;;22.47;46.77;99166.56;4174055;28;20266;-69
2022/05/16 03:42:03;;;;;;;5.75;4.38;;;;;;;22.74;46.66;99166.63;4174870;28;20664;-68
2022/05/16 03:44:05;;;;;;;7.57;4.05;;;;;;;22.05;47.73;99172.47;4174565;28;20236;-69
2022/05/16 03:46:08;;;;;;;5.50;3.85;;;;;;;21.97;48.09;99160.19;4177285;28;20232;-69
2022/05/16 03:48:10;;;;;;;5.47;3.60;;;;;;;22.92;46.29;99151.09;4176671;28;20240;-69
2022/05/16 03:50:13;;;;;;;6.47;4.35;;;;;;;23.04;46.38;99159.91;4180229;28;20228;-69
2022/05/16 03:52:15;;;;;;;5.88;4.10;;;;;;;22.88;46.59;99166.19;4178838;28;20290;-69
2022/05/16 03:54:19;;;;;;;5.90;4.20;;;;;;;22.55;47.80;99171.53;4178676;28;20228;-67
2022/05/16 03:56:27;;;;;;;5.25;3.70;;;;;;;20.86;51.22;99158.03;4179287;28;20219;-68
2022/05/16 03:58:29;;;;;;;6.68;4.47;;;;;;;22.09;49.00;99157.38;4178776;28;20946;-68
2022/05/16 04:00:31;;;;;;;5.85;3.97;;;;;;;23.01;47.29;99157.69;4181559;28;20232;-69
2022/05/16 04:02:32;;;;;;;6.57;4.28;;;;;;;23.63;46.04;99161.78;4177251;28;20243;-69
2022/05/16 04:04:34;;;;;;;7.67;3.93;;;;;;;23.16;47.44;99165.16;4164605;28;20243;-69
2022/05/16 04:06:37;;;;;;;4.63;4.00;;;;;;;21.86;49.76;99180.84;4158560;28;20668;-69
2022/05/16 04:08:38;;;;;;;7.57;4.15;;;;;;;21.20;51.33;99166.22;4149948;28;20271;-69
2022/05/16 04:10:42;;;;;;;8.38;4.60;;;;;;;20.94;52.07;99165.75;4173214;28;20262;-68
2022/05/16 04:12:44;;;;;;;7.53;4.53;;;;;;;22.26;49.70;99162.75;4180016;28;20769;-68
2022/05/16 04:14:46;;;;;;;6.35;4.18;;;;;;;21.73;50.80;99168.50;4174960;28;20259;-69
2022/05/16 04:16:48;;;;;;;8.18;4.18;;;;;;;20.94;51.61;99169.25;4175766;28;20294;-68
2022/05/16 04:18:49;;;;;;;8.35;4.43;;;;;;;21.20;51.55;99160.81;4180931;28;20286;-68
2022/05/16 04:20:51;;;;;;;8.13;4.47;;;;;;;22.43;49.39;99162.72;4180239;28;20647;-68
2022/05/16 04:22:53;;;;;;;6.32;3.72;;;;;;;23.01;48.07;99169.38;4173814;28;20516;-69
2022/05/16 04:24:54;;;;;;;5.43;3.92;;;;;;;23.00;47.94;99180.47;4178003;28;20275;-69
2022/05/16 04:26:56;;;;;;;8.63;4.40;;;;;;;23.71;46.91;99184.94;4162360;28;20230;-69
2022/05/16 04:28:58;;;;;;;6.72;4.40;;;;;;;23.61;47.14;99201.16;4161804;28;20224;-69
2022/05/16 04:31:00;;;;;;;8.13;4.88;;;;;;;23.57;47.12;99214.41;4162160;28;20548;-69
2022/05/16 04:33:01;;;;;;;5.90;4.30;;;;;;;23.13;48.13;99217.19;4166248;28;20228;-69
2022/05/16 04:35:04;;;;;;;8.23;4.93;;;;;;;22.72;49.07;99212.09;4153117;28;20779;-69
2022/05/16 04:37:06;;;;;;;7.40;4.03;;;;;;;23.17;47.93;99212.91;4152546;28;20516;-69
2022/05/16 04:39:08;;;;;;;5.55;4.07;;;;;;;23.45;47.79;99203.69;4153079;28;20283;-69
2022/05/16 04:43:29;;;;;;;8.18;4.18;;;;;;;23.06;48.46;99216.59;4176807;28;20285;-70
2022/05/16 04:45:31;;;;;;;10.95;4.07;;;;;;;23.22;48.35;99215.69;4180013;28;20662;-68
2022/05/16 04:47:33;;;;;;;5.90;4.20;;;;;;;23.05;48.47;99220.34;4179925;28;20240;-68
2022/05/16 04:49:35;;;;;;;6.20;4.25;;;;;;;22.78;49.45;99216.53;4170623;28;20285;-69
2022/05/16 04:51:37;;;;;;;8.60;4.10;;;;;;;23.15;48.44;99221.31;4160162;28;20355;-69
2022/05/16 04:53:39;;;;;;;5.13;4.10;;;;;;;23.36;47.73;99224.22;4159956;28;20713;-69
2022/05/16 04:55:40;;;;;;;7.30;4.53;;;;;;;22.76;49.33;99225.97;4161491;28;20310;-69
2022/05/16 04:57:42;;;;;;;8.27;4.10;;;;;;;22.81;49.00;99226.03;4163268;28;20935;-69
2022/05/16 04:59:49;;;;;;;8.13;4.30;;;;;;;22.66;49.42;99226.69;4160957;28;20259;-69
2022/05/16 05:01:50;;;;;;;7.57;4.75;;;;;;;22.31;50.78;99225.13;4159791;28;20244;-68
2022/05/16 05:03:52;;;;;;;6.00;4.18;;;;;;;22.47;50.16;99231.56;4160802;28;20225;-69
2022/05/16 05:05:54;;;;;;;6.97;4.43;;;;;;;22.03;51.50;99212.50;4160930;28;20236;-68
2022/05/16 05:07:55;;;;;;;6.47;4.35;;;;;;;22.26;50.73;99208.78;4159377;28;20290;-68
2022/05/16 05:14:41;;;;;;;9.77;4.00;;;;;;;22.89;49.98;99224.78;4158068;28;20281;-68
2022/05/16 05:16:43;;;;;;;10.32;4.50;;;;;;;23.20;48.74;99224.06;4149993;28;20299;-68
2022/05/16 05:18:45;;;;;;;6.97;4.40;;;;;;;22.88;50.47;99234.81;4154218;28;20232;-68
2022/05/16 05:20:47;;;;;;;7.63;4.30;;;;;;;22.82;50.35;99244.75;4153956;28;20652;-68
2022/05/16 05:22:49;;;;;;;9.02;4.32;;;;;;;23.46;48.69;99242.50;4165499;28;20262;-68
2022/05/16 05:24:50;;;;;;;5.97;4.00;;;;;;;23.65;48.95;99240.25;4154502;28;20581;-69
2022/05/16 05:26:52;;;;;;;8.68;4.40;;;;;;;23.66;49.09;99258.19;4151881;28;20793;-71
2022/05/16 05:28:54;;;;;;;8.50;4.78;;;;;;;23.61;48.71;99253.50;4167770;28;20293;-69
2022/05/16 05:30:57;;;;;;;8.85;5.18;;;;;;;23.38;49.25;99268.16;4162522;28;20231;-70
2022/05/16 05:32:59;;;;;;;5.47;4.32;;;;;;;22.62;51.03;99267.00;4158916;28;20229;-69
2022/05/16 05:35:02;;;;;;;4.85;3.90;;;;;;;23.35;49.75;99265.97;4159134;28;20604;-69
2022/05/16 05:37:04;;;;;;;6.68;4.20;;;;;;;22.95;50.61;99275.31;4161023;28;20232;-70
2022/05/16 05:39:06;;;;;;;7.53;4.35;;;;;;;23.03;50.55;99272.16;4153623;28;20229;-69
2022/05/16 05:41:09;;;;;;;8.00;4.70;;;;;;;23.09;50.12;99281.16;4154756;28;20256;-69
2022/05/16 05:43:11;;;;;;;7.20;4.70;;;;;;;23.36;49.94;99271.13;4154749;28;20225;-70
2022/05/16 05:45:13;;;;;;;10.60;4.90;;;;;;;23.01;49.87;99277.81;4150450;28;20262;-69
2022/05/16 05:47:15;;;;;;;7.13;4.30;;;;;;;23.24;49.74;99284.03;4154285;28;20241;-69
2022/05/16 05:49:17;;;;;;;5.53;4.13;;;;;;;22.77;50.24;99298.88;4173023;28;20657;-69
2022/05/16 05:51:19;;;;;;;6.30;4.18;;;;;;;23.02;49.70;99294.91;4156529;28;20276;-69
2022/05/16 05:53:21;;;;;;;6.90;4.20;;;;;;;23.14;49.52;99298.28;4155333;28;20292;-69
2022/05/16 05:55:22;;;;;;;6.97;4.47;;;;;;;23.43;49.07;99311.63;4152357;28;20236;-70
2022/05/16 05:57:25;;;;;;;7.88;4.57;;;;;;;23.26;49.38;99303.59;4149456;28;20236;-70
2022/05/16 05:59:33;;;;;;;9.13;4.25;;;;;;;23.85;48.57;99318.31;4152671;28;20622;-70
2022/05/16 06:01:35;;;;;;;5.30;4.13;;;;;;;23.11;49.61;99317.78;4158107;28;20224;-70
2022/05/16 06:03:37;;;;;;;4.78;3.85;;;;;;;23.13;50.15;99320.25;4153306;28;20315;-71
2022/05/16 06:05:39;;;;;;;6.43;4.10;;;;;;;23.09;49.76;99324.53;4153737;28;20260;-71
2022/05/16 06:07:41;;;;;;;8.40;4.55;;;;;;;23.82;48.98;99330.50;4150386;28;20700;-71
2022/05/16 06:09:43;;;;;;;7.10;4.10;;;;;;;23.57;49.09;99336.53;4161609;28;20657;-71
2022/05/16 06:11:45;;;;;;;6.05;4.35;;;;;;;23.52;50.14;99334.53;4157944;28;20240;-72
2022/05/16 06:13:46;;;;;;;6.90;4.55;;;;;;;23.52;49.11;99339.16;4158776;28;20286;-71
2022/05/16 06:15:48;;;;;;;5.22;3.88;;;;;;;23.92;48.50;99346.91;4177963;28;20244;-72
2022/05/16 06:17:50;;;;;;;8.82;3.97;;;;;;;23.80;49.34;99351.66;4178287;28;20943;-71
2022/05/16 06:19:52;;;;;;;6.22;4.15;;;;;;;23.85;48.97;99350.91;4173243;28;21238;-71
2022/05/16 06:21:53;;;;;;;8.63;3.90;;;;;;;23.65;49.68;99346.09;4164750;28;20225;-72
2022/05/16 06:23:55;;;;;;;6.10;4.07;;;;;;;23.10;50.57;99354.13;4160029;28;20294;-72
2022/05/16 06:25:57;;;;;;;6.60;4.05;;;;;;;23.80;49.47;99348.13;4159256;28;20762;-72
2022/05/16 06:28:09;;;;;;;7.60;3.80;;;;;;;23.84;49.26;99357.41;4161121;28;20666;-72
2022/05/16 06:30:11;;;;;;;5.55;4.20;;;;;;;23.85;49.46;99359.84;4152380;28;20224;-72
2022/05/16 06:32:13;;;;;;;5.93;3.72;;;;;;;23.49;49.73;99364.88;4154332;28;20741;-71
2022/05/16 06:34:15;;;;;;;5.70;3.95;;;;;;;23.65;49.84;99367.78;4151380;28;20624;-71
2022/05/16 06:36:17;;;;;;;6.15;4.20;;;;;;;23.49;50.08;99370.31;4155361;28;20286;-71
2022/05/16 06:38:23;;;;;;;4.80;4.05;;;;;;;23.51;50.41;99376.31;4156166;28;20867;-72
2022/05/16 06:40:25;;;;;;;5.13;3.60;;;;;;;23.32;50.62;99375.81;4153030;28;20290;-71
2022/05/16 06:42:27;;;;;;;6.18;3.88;;;;;;;23.50;50.27;99365.69;4153930;28;21136;-71
2022/05/16 06:44:28;;;;;;;5.75;4.70;;;;;;;22.94;51.34;99371.25;4151152;28;20273;-71
2022/05/16 06:46:34;;;;;;;6.18;4.10;;;;;;;22.59;51.67;99380.47;4155025;28;20252;-71
2022/05/16 06:48:35;;;;;;;5.32;3.85;;;;;;;23.35;50.91;99382.63;4171693;28;20701;-71
2022/05/16 06:50:39;;;;;;;5.40;4.35;;;;;;;23.72;50.13;99385.53;4177294;28;20227;-71
2022/05/16 06:52:40;;;;;;;6.20;4.70;;;;;;;22.89;51.86;99395.53;4177941;28;20282;-71
2022/05/16 06:54:43;;;;;;;11.50;4.70;;;;;;;23.04;52.32;99379.53;4157633;28;20638;-71
2022/05/16 06:56:44;;;;;;;7.90;4.22;;;;;;;22.50;53.75;99387.38;4153305;28;20244;-71
2022/05/16 06:58:46;;;;;;;5.68;4.45;;;;;;;22.17;54.57;99389.81;4167522;28;20231;-71
2022/05/16 07:00:50;;;;;;;6.45;4.40;;;;;;;22.59;54.17;99377.75;4176412;28;20651;-71
2022/05/16 07:02:52;;;;;;;8.57;4.10;;;;;;;23.10;52.09;99383.94;4171230;28;20274;-71
2022/05/16 07:05:14;;;;;;;9.45;4.10;;;;;;;23.09;52.40;99387.72;4174447;28;20259;-71
2022/05/16 07:07:17;;;;;;;7.63;4.90;;;;;;;23.55;51.76;99388.34;4156413;28;20240;-71
2022/05/16 07:09:18;;;;;;;9.02;4.53;;;;;;;23.67;51.22;99400.94;4165746;28;20236;-71
2022/05/16 07:11:20;;;;;;;7.90;4.13;;;;;;;23.83;51.46;99408.16;4156450;28;20236;-71
2022/05/16 07:13:23;;;;;;;8.85;4.70;;;;;;;23.53;52.37;99408.63;4151539;28;20294;-71
2022/05/16 07:15:25;;;;;;;5.20;4.57;;;;;;;23.89;51.49;99409.88;4154190;28;20668;-71
2022/05/16 07:17:27;;;;;;;6.05;4.35;;;;;;;23.86;51.55;99410.38;4161461;28;20240;-71
2022/05/16 07:19:31;;;;;;;10.68;4.60;;;;;;;23.41;52.80;99419.59;4154885;28;20299;-71
2022/05/16 07:21:34;;;;;;;10.32;4.25;;;;;;;23.96;51.35;99417.81;4152846;28;20291;-71
2022/05/16 07:23:35;;;;;;;6.70;4.38;;;;;;;23.98;51.22;99436.56;4177788;28;20228;-71
2022/05/16 07:27:59;;;;;;;8.63;4.55;;;;;;;24.07;50.50;99443.97;4180120;28;20285;-71
2022/05/16 07:30:01;;;;;;;6.45;5.00;;;;;;;24.02;50.52;99443.91;4174231;28;20255;-71
2022/05/16 07:32:03;;;;;;;7.03;3.65;;;;;;;24.47;49.73;99441.94;4178741;28;20748;-71
2022/05/16 07:34:05;;;;;;;8.23;4.45;;;;;;;24.04;50.52;99449.94;4183102;28;20234;-71
2022/05/16 07:36:07;;;;;;;8.70;4.10;;;;;;;24.00;50.22;99453.41;4174642;28;20283;-71
2022/05/16 07:38:09;;;;;;;6.32;4.20;;;;;;;24.07;49.96;99457.56;4176962;28;20327;-71
2022/05/16 07:40:12;;;;;;;6.05;4.32;;;;;;;23.90;49.95;99468.50;4181878;28;20231;-71
2022/05/16 07:42:14;;;;;;;7.72;4.50;;;;;;;24.20;50.11;99469.94;4181735;28;20590;-71
2022/05/16 07:44:15;;;;;;;7.43;4.55;;;;;;;23.97;50.77;99467.50;4164742;28;20224;-71
2022/05/16 07:46:17;;;;;;;7.30;4.10;;;;;;;24.21;50.80;99471.59;4161642;28;20232;-71
2022/05/16 07:48:19;;;;;;;4.70;3.67;;;;;;;24.26;50.11;99468.09;4160242;28;20235;-71
2022/05/16 07:50:25;;;;;;;7.25;4.10;;;;;;;24.23;50.00;99477.59;4166996;28;20755;-71
2022/05/16 07:52:27;;;;;;;4.38;3.67;;;;;;;24.40;49.88;99482.91;4157240;28;20228;-71
2022/05/16 07:54:29;;;;;;;8.25;3.95;;;;;;;24.04;50.81;99487.97;4165172;28;20406;-71
2022/05/16 07:56:34;;;;;;;6.40;3.72;;;;;;;24.13;50.93;99485.59;4156939;28;20242;-71
2022/05/16 07:58:36;;;;;;;5.88;4.10;;;;;;;24.00;50.54;99480.56;4153591;28;20236;-71
2022/05/16 08:00:37;;;;;;;5.68;4.05;;;;;;;23.70;51.71;99479.13;4175418;28;20239;-71
2022/05/16 08:02:40;;;;;;;7.07;3.75;;;;;;;23.92;51.00;99485.38;4177989;28;20263;-71
2022/05/16 08:04:41;;;;;;;6.63;3.58;;;;;;;24.41;50.28;99481.00;4176731;28;20224;-71
2022/05/16 08:06:43;;;;;;;11.13;4.28;;;;;;;24.61;50.42;99489.34;4168488;28;20593;-71
2022/05/16 08:11:06;;;;;;;7.90;4.72;;;;;;;24.39;50.41;99499.47;4154448;28;20278;-71
2022/05/16 08:13:10;;;;;;;5.57;3.85;;;;;;;24.56;50.35;99499.34;4159782;28;20753;-71
2022/05/16 08:15:12;;;;;;;9.23;4.03;;;;;;;24.55;50.47;99495.81;4158882;28;20221;-71
2022/05/16 08:17:14;;;;;;;8.93;4.28;;;;;;;24.87;49.86;99503.19;4161980;28;20315;-71
2022/05/16 08:19:16;;;;;;;7.18;4.68;;;;;;;24.56;50.08;99500.16;4156850;28;20236;-71
2022/05/16 08:21:17;;;;;;;6.43;4.35;;;;;;;24.43;50.67;99501.44;4152560;28;20636;-71
2022/05/16 08:23:28;;;;;;;6.82;4.35;;;;;;;23.91;52.33;99501.94;4158274;28;20821;-71
2022/05/16 08:25:30;;;;;;;7.07;4.47;;;;;;;24.20;51.53;99501.72;4172697;28;20232;-71
2022/05/16 08:27:32;;;;;;;8.43;4.53;;;;;;;23.78;53.17;99494.97;4155420;28;20232;-71
2022/05/16 08:29:34;;;;;;;8.32;4.50;;;;;;;24.55;51.42;99494.97;4157430;28;20662;-71
2022/05/16 08:31:35;;;;;;;7.47;4.45;;;;;;;23.81;53.11;99499.09;4166403;28;20755;-71
2022/05/16 08:33:39;;;;;;;10.60;4.70;;;;;;;24.18;52.57;99499.28;4162344;28;20302;-71
2022/05/16 08:35:41;;;;;;;7.20;4.70;;;;;;;23.42;53.61;99493.66;4159410;28;20229;-71
2022/05/16 08:40:04;;;;;;;9.23;4.30;;;;;;;23.63;54.27;99498.31;4180590;28;20289;-71
2022/05/16 08:42:12;;;;;;;8.00;4.38;;;;;;;24.11;53.29;99490.47;4175291;28;20265;-72
2022/05/16 08:44:36;;;;;;;8.88;4.55;;;;;;;24.59;52.04;99505.09;4168414;28;20290;-71
2022/05/16 08:46:48;;;;;;;7.32;4.40;;;;;;;25.14;50.78;99503.09;4154122;28;20242;-72
2022/05/16 08:48:58;;;;;;;7.88;4.05;;;;;;;23.84;52.46;99507.56;4162815;28;20235;-72
2022/05/16 08:51:06;;;;;;;12.73;4.25;;;;;;;25.19;50.93;99515.94;4161932;28;20232;-72
2022/05/16 08:53:18;;;;;;;9.00;3.80;;;;;;;25.06;49.83;99522.63;4158243;28;20530;-72
2022/05/16 08:55:30;;;;;;;11.73;3.80;;;;;;;25.26;47.99;99532.84;4156883;28;20232;-72
2022/05/16 08:57:36;;;;;;;10.23;3.28;;;;;;;25.68;46.69;99542.91;4174288;28;20308;-72
2022/05/16 08:59:41;;;;;;;5.63;3.20;;;;;;;25.26;46.17;99551.06;4180344;28;20228;-72
2022/05/16 09:01:51;;;;;;;9.65;3.08;;;;;;;25.47;46.44;99565.66;4165291;28;20232;-72
2022/05/16 09:04:00;;;;;;;7.63;2.85;;;;;;;25.03;45.49;99556.59;4160958;28;20744;-72
2022/05/16 09:06:15;;;;;;;5.90;2.92;;;;;;;25.00;45.15;99567.19;4158381;28;20294;-72
2022/05/16 09:08:33;;;;;;;6.43;2.92;;;;;;;24.69;45.44;99558.72;4166366;28;20229;-72
2022/05/16 09:11:07;;;;;;;6.65;2.45;;;;;;;24.78;45.88;99545.53;4166597;28;20254;-72
2022/05/16 09:13:37;;;;;;;5.93;2.40;;;;;;;25.36;45.04;99549.25;4167876;28;20274;-72
2022/05/16 09:15:51;;;;;;;4.50;2.63;;;;;;;24.73;45.21;99553.59;4174018;28;20267;-72
2022/05/16 09:18:30;;;;;;;7.38;2.95;;;;;;;25.14;45.36;99557.50;4151938;28;20240;-72
2022/05/16 09:20:34;;;;;;;8.13;2.92;;;;;;;25.26;45.14;99557.31;4159549;28;20228;-72
2022/05/16 09:23:07;;;;;;;6.45;2.60;;;;;;;25.88;44.91;99568.59;4156121;28;20233;-72
2022/05/16 09:25:26;;;;;;;6.90;2.30;;;;;;;25.36;44.97;99564.78;4159672;28;20649;-72
2022/05/16 09:29:53;;;;;;;5.68;2.33;;;;;;;25.03;44.99;99578.34;4178415;28;20320;-72
2022/05/16 09:32:16;;;;;;;7.30;2.05;;;;;;;25.32;44.32;99583.47;4177262;28;20236;-72
2022/05/16 09:34:18;;;;;;;9.88;2.08;;;;;;;25.20;44.32;99583.66;4164597;28;20773;-72
2022/05/16 09:36:25;;;;;;;4.85;2.28;;;;;;;24.62;45.28;99577.97;4161361;28;20224;-72
2022/05/16 09:38:26;;;;;;;4.88;1.92;;;;;;;25.25;44.92;99585.59;4157687;28;20259;-72
2022/05/16 09:40:37;;;;;;;4.88;2.17;;;;;;;25.34;45.28;99592.22;4161758;28;20248;-72
2022/05/16 09:42:40;;;;;;;6.50;2.28;;;;;;;24.66;45.93;99600.03;4160364;28;20575;-72
2022/05/16 09:45:05;;;;;;;6.78;2.55;;;;;;;24.53;46.78;99600.41;4160556;28;20229;-71
2022/05/16 09:47:22;;;;;;;6.03;2.83;;;;;;;24.19;46.83;99598.69;4163601;28;20293;-72
2022/05/16 09:49:26;;;;;;;6.80;3.15;;;;;;;24.07;46.98;99606.94;4181057;28;20235;-71
2022/05/16 09:51:30;;;;;;;7.68;2.58;;;;;;;23.83;47.40;99606.34;4167664;28;20228;-72
2022/05/16 09:53:37;;;;;;;7.05;2.70;;;;;;;24.23;46.54;99601.75;4161579;28;20243;-71
2022/05/16 09:55:53;;;;;;;10.68;2.85;;;;;;;23.91;47.23;99605.09;4159377;28;20774;-71
2022/05/16 09:58:25;;;;;;;5.20;2.67;;;;;;;24.18;46.70;99613.34;4159264;28;20244;-71
2022/05/16 10:00:30;;;;;;;4.95;2.45;;;;;;;24.39;46.59;99619.03;4154803;28;20816;-71
2022/05/16 10:02:35;;;;;;;10.00;2.50;;;;;;;23.91;47.79;99615.97;4171289;28;20228;-71
2022/05/16 10:04:44;;;;;;;3.63;2.00;;;;;;;23.33;47.66;99618.91;4174990;28;20231;-71
2022/05/16 10:07:01;;;;;;;6.38;2.50;;;;;;;23.55;47.99;99624.41;4172097;28;20262;-71
2022/05/16 10:09:09;;;;;;;5.78;2.83;;;;;;;23.92;47.37;99632.00;4173059;28;20327;-71
2022/05/16 10:11:16;;;;;;;6.20;2.72;;;;;;;23.40;47.95;99645.88;4172157;28;20339;-71
2022/05/16 10:13:18;;;;;;;7.38;3.03;;;;;;;23.19;48.82;99629.22;4168112;28;20236;-72